Time;durP1;ratioP1;P1;durP2;ratioP2;P2;SDS_P1;SDS_P2;PMS_P1;PMS_P2;Temp;Humidity;BMP_temperature;BMP_pressure;BME280_temperature;BME280_humidity;BME280_pressure;Samples;Min_cycle;Max_cycle;Signal;HPM_P1;HPM_P2
2022/11/12 00:01:21;;;;;;;;;;;;;;;-143.57;100.00;51247.31;5080651;28;19939;-72
2022/11/12 00:04:08;;;;;;;;;;;;;;;-143.57;100.00;51243.34;5081030;28;19959;-70
2022/11/12 00:06:53;;;;;;;;;;;;;;;-143.57;100.00;51247.31;5081215;28;19931;-71
2022/11/12 00:09:38;;;;;;;;;;;;;;;-143.57;100.00;51239.38;5081882;28;19935;-72
2022/11/12 00:12:23;;;;;;;;;;;;;;;-143.57;100.00;51283.09;5080973;28;19982;-72
2022/11/12 00:15:09;;;;;;;;;;;;;;;-143.57;100.00;51223.47;5080166;28;20005;-71
2022/11/12 00:17:54;;;;;;;;;;;;;;;-143.57;100.00;51259.25;5080572;28;19931;-71
2022/11/12 00:20:40;;;;;;;;;;;;;;;-143.57;100.00;51279.13;5081623;28;20519;-71
2022/11/12 00:23:25;;;;;;;;;;;;;;;-143.57;100.00;51267.19;5081813;28;19936;-71
2022/11/12 00:26:10;;;;;;;;;;;;;;;-143.57;100.00;51247.31;5081586;28;20301;-71
2022/11/12 00:28:55;;;;;;;;;;;;;;;-143.57;100.00;51287.09;5081620;28;19931;-72
2022/11/12 00:31:40;;;;;;;;;;;;;;;-143.57;100.00;51263.22;5082669;28;19931;-71
2022/11/12 00:34:25;;;;;;;;;;;;;;;-143.57;100.00;51243.34;5081756;28;20454;-72
2022/11/12 00:37:10;;;;;;;;;;;;;;;-143.57;100.00;51223.47;5082354;28;20569;-72
2022/11/12 00:39:55;;;;;;;;;;;;;;;-143.57;100.00;51277.16;5083325;28;20432;-71
2022/11/12 00:42:40;;;;;;;;;;;;;;;-143.57;100.00;51303.00;5085561;28;19935;-71
2022/11/12 00:45:26;;;;;;;;;;;;;;;-143.57;100.00;51239.38;5086755;28;20537;-71
2022/11/12 00:48:11;;;;;;;;;;;;;;;-143.57;100.00;51285.09;5086168;28;19930;-71
2022/11/12 00:51:03;;;;;;;;;;;;;;;-143.57;100.00;51231.41;5070928;28;19938;-71
2022/11/12 00:53:49;;;;;;;;;;;;;;;-143.57;100.00;51235.41;5085283;28;20481;-71
2022/11/12 00:56:34;;;;;;;;;;;;;;;-143.57;100.00;51239.38;5084919;28;19939;-71
2022/11/12 00:59:19;;;;;;;;;;;;;;;-143.57;100.00;51259.25;5069397;28;19951;-72
2022/11/12 01:02:05;;;;;;;;;;;;;;;-143.57;100.00;51287.09;5086098;28;19931;-72
2022/11/12 01:04:50;;;;;;;;;;;;;;;-143.57;100.00;51281.13;5083510;28;19934;-72
2022/11/12 01:07:35;;;;;;;;;;;;;;;-143.57;100.00;51247.31;5084577;28;19931;-71
2022/11/12 01:10:20;;;;;;;;;;;;;;;-143.57;100.00;51239.38;5084510;28;20028;-71
2022/11/12 01:13:05;;;;;;;;;;;;;;;-143.57;100.00;51227.44;5069196;28;19985;-71
2022/11/12 01:15:50;;;;;;;;;;;;;;;-143.57;100.00;51271.19;5070761;28;19953;-71
2022/11/12 01:18:35;;;;;;;;;;;;;;;-143.57;100.00;51283.09;5086075;28;19931;-71
2022/11/12 01:21:20;;;;;;;;;;;;;;;-143.57;100.00;51277.16;5086695;28;20463;-72
2022/11/12 01:24:06;;;;;;;;;;;;;;;-143.57;100.00;51211.53;5084975;28;19931;-71
2022/11/12 01:26:52;;;;;;;;;;;;;;;-143.57;100.00;51247.31;5084536;28;20451;-71
2022/11/12 01:29:37;;;;;;;;;;;;;;;-143.57;100.00;51269.19;5083607;28;19997;-72
2022/11/12 01:32:22;;;;;;;;;;;;;;;-143.57;100.00;51247.31;5084851;28;19951;-71
2022/11/12 01:35:07;;;;;;;;;;;;;;;-143.57;100.00;51291.06;5083499;28;20080;-71
2022/11/12 01:37:52;;;;;;;;;;;;;;;-143.57;100.00;51259.25;5084719;28;20392;-72
2022/11/12 01:40:37;;;;;;;;;;;;;;;-143.57;100.00;51287.09;5067775;28;19935;-71
2022/11/12 01:43:22;;;;;;;;;;;;;;;-143.57;100.00;51247.31;5082540;28;19935;-71
2022/11/12 01:46:27;;;;;;;;;;;;;;;-143.57;100.00;51231.41;5085031;28;19989;-72
2022/11/12 01:49:23;;;;;;;;;;;;;;;-143.57;100.00;51227.44;5084007;28;20021;-73
2022/11/12 01:52:28;;;;;;;;;;;;;;;-143.57;100.00;51251.31;5084273;28;19935;-73
2022/11/12 01:55:17;;;;;;;;;;;;;;;-143.57;100.00;51251.31;5082246;28;20416;-72
2022/11/12 01:58:02;;;;;;;;;;;;;;;-143.57;100.00;51251.31;5084267;28;19934;-71
2022/11/12 02:00:47;;;;;;;;;;;;;;;-143.57;100.00;51227.44;5084440;28;19939;-71
2022/11/12 02:03:32;;;;;;;;;;;;;;;-143.57;100.00;51263.22;5082760;28;20069;-72
2022/11/12 02:06:18;;;;;;;;;;;;;;;-143.57;100.00;51227.44;5085188;28;19939;-72
2022/11/12 02:09:04;;;;;;;;;;;;;;;-143.57;100.00;51247.31;5083185;28;20431;-72
2022/11/12 02:11:49;;;;;;;;;;;;;;;-143.57;100.00;51235.41;5085587;28;20415;-72
2022/11/12 02:14:34;;;;;;;;;;;;;;;-143.57;100.00;51263.22;5083364;28;20141;-71
2022/11/12 02:17:19;;;;;;;;;;;;;;;-143.57;100.00;51295.03;5083375;28;20083;-71
2022/11/12 02:20:07;;;;;;;;;;;;;;;-143.57;100.00;51243.34;5082953;28;19935;-71
2022/11/12 02:22:52;;;;;;;;;;;;;;;-143.57;100.00;51267.19;5083601;28;19950;-71
2022/11/12 02:25:37;;;;;;;;;;;;;;;-143.57;100.00;51287.09;5084443;28;19939;-71
2022/11/12 02:28:22;;;;;;;;;;;;;;;-143.57;100.00;51263.22;5083593;28;20040;-72
2022/11/12 02:31:08;;;;;;;;;;;;;;;-143.57;100.00;51279.13;5084315;28;20000;-71
2022/11/12 02:33:53;;;;;;;;;;;;;;;-143.57;100.00;51271.19;5082635;28;19946;-72
2022/11/12 02:36:38;;;;;;;;;;;;;;;-143.57;100.00;51237.38;5084238;28;19939;-71
2022/11/12 02:39:23;;;;;;;;;;;;;;;-143.57;100.00;51267.19;5082873;28;19935;-71
2022/11/12 02:42:08;;;;;;;;;;;;;;;-143.57;100.00;51247.31;5084569;28;20415;-71
2022/11/12 02:44:53;;;;;;;;;;;;;;;-143.57;100.00;51259.25;5083365;28;19934;-72
2022/11/12 02:47:38;;;;;;;;;;;;;;;-143.57;100.00;51263.22;5082984;28;20117;-71
2022/11/12 02:50:23;;;;;;;;;;;;;;;-143.57;100.00;51243.34;5083288;28;20011;-71
2022/11/12 02:53:08;;;;;;;;;;;;;;;-143.57;100.00;51247.31;5084223;28;20111;-71
2022/11/12 02:55:53;;;;;;;;;;;;;;;-143.57;100.00;51245.34;5081509;28;20058;-71
2022/11/12 02:58:38;;;;;;;;;;;;;;;-143.57;100.00;51241.34;5083031;28;20102;-71
2022/11/12 03:01:23;;;;;;;;;;;;;;;-143.57;100.00;51239.38;5084919;28;20345;-71
2022/11/12 03:04:08;;;;;;;;;;;;;;;-143.57;100.00;51225.47;5084195;28;20277;-71
2022/11/12 03:06:53;;;;;;;;;;;;;;;-143.57;100.00;51267.19;5083699;28;19935;-72
2022/11/12 03:09:38;;;;;;;;;;;;;;;-143.57;100.00;51271.19;5082407;28;20028;-72
2022/11/12 03:12:23;;;;;;;;;;;;;;;-143.57;100.00;51287.09;5081893;28;19946;-71
2022/11/12 03:15:08;;;;;;;;;;;;;;;-143.57;100.00;51263.22;5083488;28;19962;-72
2022/11/12 03:17:53;;;;;;;;;;;;;;;-143.57;100.00;51275.16;5082258;28;20232;-71
2022/11/12 03:20:39;;;;;;;;;;;;;;;-143.57;100.00;51271.19;5066012;28;19939;-71
2022/11/12 03:23:25;;;;;;;;;;;;;;;-143.57;100.00;51277.16;5081152;28;19935;-71
2022/11/12 03:26:10;;;;;;;;;;;;;;;-143.57;100.00;51267.19;5082360;28;20004;-71
2022/11/12 03:28:54;;;;;;;;;;;;;;;-143.57;100.00;51273.16;5066839;28;19935;-72
2022/11/12 03:31:40;;;;;;;;;;;;;;;-143.57;100.00;51219.50;5082206;28;19985;-72
2022/11/12 03:34:25;;;;;;;;;;;;;;;-143.57;100.00;51247.31;5067776;28;19934;-72
2022/11/12 03:37:10;;;;;;;;;;;;;;;-143.57;100.00;51223.47;5080840;28;20053;-72
2022/11/12 03:39:55;;;;;;;;;;;;;;;-143.57;100.00;51243.34;5082314;28;20020;-72
2022/11/12 03:42:44;;;;;;;;;;;;;;;-143.57;100.00;51249.31;5082099;28;19934;-71
2022/11/12 03:45:29;;;;;;;;;;;;;;;-143.57;100.00;51235.41;5066028;28;20321;-71
2022/11/12 03:48:14;;;;;;;;;;;;;;;-143.57;100.00;51275.16;5081940;28;20523;-71
2022/11/12 03:50:59;;;;;;;;;;;;;;;-143.57;100.00;51227.44;5082584;28;19935;-71
2022/11/12 03:53:44;;;;;;;;;;;;;;;-143.57;100.00;51243.34;5084348;28;20084;-71
2022/11/12 03:56:29;;;;;;;;;;;;;;;-143.57;100.00;51243.34;5079163;28;19951;-71
2022/11/12 03:59:15;;;;;;;;;;;;;;;-143.57;100.00;51241.34;5084016;28;20412;-72
2022/11/12 04:02:00;;;;;;;;;;;;;;;-143.57;100.00;51219.50;5083228;28;19935;-71
2022/11/12 04:11:02;;;;;;;;;;;;;;;-143.57;100.00;51301.00;5081807;28;19939;-71
2022/11/12 04:13:47;;;;;;;;;;;;;;;-143.57;100.00;51251.31;5081685;28;19935;-71
2022/11/12 04:22:40;;;;;;;;;;;;;;;-143.57;100.00;51247.31;5086333;28;19931;-71
2022/11/12 04:28:29;;;;;;;;;;;;;;;-143.57;100.00;51239.38;5086382;28;19935;-71
2022/11/12 04:31:14;;;;;;;;;;;;;;;-143.57;100.00;51235.41;5086587;28;19939;-71
2022/11/12 04:34:27;;;;;;;;;;;;;;;-143.57;100.00;51275.16;5084676;28;20462;-71
2022/11/12 04:37:05;;;;;;;;;;;;;;;-143.57;100.00;51257.25;5084833;28;19934;-71
2022/11/12 04:39:50;;;;;;;;;;;;;;;-143.57;100.00;51207.56;5084949;28;19931;-71
2022/11/12 04:45:40;;;;;;;;;;;;;;;-143.57;100.00;51247.31;5089655;28;19930;-71
2022/11/12 04:48:25;;;;;;;;;;;;;;;-143.57;100.00;51235.41;5088461;28;20441;-71
2022/11/12 04:54:15;;;;;;;;;;;;;;;-143.57;100.00;51275.16;5089512;28;20357;-71
2022/11/12 04:57:00;;;;;;;;;;;;;;;-143.57;100.00;51239.38;5090574;28;19935;-71
2022/11/12 04:59:46;;;;;;;;;;;;;;;-143.57;100.00;51223.47;5091077;28;19951;-71
2022/11/12 05:02:31;;;;;;;;;;;;;;;-143.57;100.00;51267.19;5090857;28;20001;-71
2022/11/12 05:05:16;;;;;;;;;;;;;;;-143.57;100.00;51233.41;5090626;28;20380;-71
2022/11/12 05:08:02;;;;;;;;;;;;;;;-143.57;100.00;51235.41;5089625;28;20612;-71
2022/11/12 05:10:47;;;;;;;;;;;;;;;-143.57;100.00;51287.09;5090525;28;19942;-71
2022/11/12 05:13:32;;;;;;;;;;;;;;;-143.57;100.00;51267.19;5088553;28;20021;-71
2022/11/12 05:16:17;;;;;;;;;;;;;;;-143.57;100.00;51215.53;5089681;28;19973;-72
2022/11/12 05:19:02;;;;;;;;;;;;;;;-143.57;100.00;51243.34;5088878;28;19981;-71
2022/11/12 05:22:06;;;;;;;;;;;;;;;-143.57;100.00;51239.38;5090652;28;19939;-70
2022/11/12 05:24:54;;;;;;;;;;;;;;;-143.57;100.00;51235.41;5089898;28;19982;-70
2022/11/12 05:27:39;;;;;;;;;;;;;;;-143.57;100.00;51263.22;5092819;28;19993;-71
2022/11/12 05:30:24;;;;;;;;;;;;;;;-143.57;100.00;51259.25;5088803;28;20028;-71
2022/11/12 05:33:10;;;;;;;;;;;;;;;-143.57;100.00;51215.53;5090190;28;20005;-71
2022/11/12 05:35:55;;;;;;;;;;;;;;;-143.57;100.00;51231.41;5090378;28;20502;-72
2022/11/12 05:38:40;;;;;;;;;;;;;;;-143.57;100.00;51219.50;5088482;28;20061;-72
2022/11/12 05:41:26;;;;;;;;;;;;;;;-143.57;100.00;51265.22;5087683;28;20364;-72
2022/11/12 05:44:29;;;;;;;;;;;;;;;-143.57;100.00;51235.41;5088065;28;19934;-72
2022/11/12 05:47:15;;;;;;;;;;;;;;;-143.57;100.00;51281.13;5086230;28;20427;-71
2022/11/12 05:50:00;;;;;;;;;;;;;;;-143.57;100.00;51261.25;5085696;28;20120;-71
2022/11/12 05:52:45;;;;;;;;;;;;;;;-143.57;100.00;51241.34;5090245;28;20423;-72
2022/11/12 05:55:30;;;;;;;;;;;;;;;-143.57;100.00;51223.47;5086340;28;19943;-72
2022/11/12 05:58:21;;;;;;;;;;;;;;;-143.57;100.00;51227.44;5083581;28;20612;-71
2022/11/12 06:01:06;;;;;;;;;;;;;;;-143.57;100.00;51271.19;5083702;28;20392;-71
2022/11/12 06:03:51;;;;;;;;;;;;;;;-143.57;100.00;51231.41;5084748;28;19935;-71
2022/11/12 06:06:37;;;;;;;;;;;;;;;-143.57;100.00;51239.38;5085079;28;19935;-71
2022/11/12 06:09:22;;;;;;;;;;;;;;;-143.57;100.00;51283.09;5083799;28;20191;-71
2022/11/12 06:12:07;;;;;;;;;;;;;;;-143.57;100.00;51219.50;5084302;28;20006;-71
2022/11/12 06:14:52;;;;;;;;;;;;;;;-143.57;100.00;51227.44;5085251;28;20320;-71
2022/11/12 06:17:37;;;;;;;;;;;;;;;-143.57;100.00;51267.19;5085217;28;19934;-71
2022/11/12 06:20:23;;;;;;;;;;;;;;;-143.57;100.00;51267.19;5083473;28;19935;-71
2022/11/12 06:23:08;;;;;;;;;;;;;;;-143.57;100.00;51267.19;5083341;28;20503;-71
2022/11/12 06:25:53;;;;;;;;;;;;;;;-143.57;100.00;51219.50;5084419;28;20024;-71
2022/11/12 06:28:39;;;;;;;;;;;;;;;-143.57;100.00;51243.34;5081942;28;19935;-72
2022/11/12 06:31:24;;;;;;;;;;;;;;;-143.57;100.00;51275.16;5083816;28;19993;-71
2022/11/12 06:34:11;;;;;;;;;;;;;;;-143.57;100.00;51247.31;5084679;28;19947;-71
2022/11/12 06:36:56;;;;;;;;;;;;;;;-143.57;100.00;51275.16;5081413;28;20064;-71
2022/11/12 06:39:41;;;;;;;;;;;;;;;-143.57;100.00;51271.19;5084417;28;20440;-72
2022/11/12 06:42:26;;;;;;;;;;;;;;;-143.57;100.00;51277.16;5084615;28;19939;-71
2022/11/12 06:45:11;;;;;;;;;;;;;;;-143.57;100.00;51291.06;5082440;28;19934;-72
2022/11/12 06:47:57;;;;;;;;;;;;;;;-143.57;100.00;51271.19;5066078;28;20074;-72
2022/11/12 06:50:42;;;;;;;;;;;;;;;-143.57;100.00;51271.19;5065841;28;19939;-72
2022/11/12 06:53:27;;;;;;;;;;;;;;;-143.57;100.00;51227.44;5081740;28;19931;-72
2022/11/12 06:56:13;;;;;;;;;;;;;;;-143.57;100.00;51231.41;5078393;28;19935;-71
2022/11/12 06:58:58;;;;;;;;;;;;;;;-143.57;100.00;51275.16;5068231;28;19930;-72
2022/11/12 07:01:43;;;;;;;;;;;;;;;-143.57;100.00;51239.38;5082884;28;19951;-71
2022/11/12 07:04:28;;;;;;;;;;;;;;;-143.57;100.00;51231.41;5083983;28;19931;-77
2022/11/12 07:07:14;;;;;;;;;;;;;;;-143.57;100.00;51263.22;5068172;28;19951;-76
2022/11/12 07:09:59;;;;;;;;;;;;;;;-143.57;100.00;51239.38;5081929;28;19931;-71
2022/11/12 07:12:44;;;;;;;;;;;;;;;-143.57;100.00;51267.19;5081905;28;19993;-75
2022/11/12 07:15:37;;;;;;;;;;;;;;;-143.57;100.00;51235.41;5068395;28;20061;-73
2022/11/12 07:18:21;;;;;;;;;;;;;;;-143.57;100.00;51251.31;5082140;28;20032;-72
2022/11/12 07:21:09;;;;;;;;;;;;;;;-143.57;100.00;51241.34;5079730;28;19966;-73
2022/11/12 07:23:54;;;;;;;;;;;;;;;-143.57;100.00;51259.25;5079525;28;19935;-69
2022/11/12 07:26:41;;;;;;;;;;;;;;;-143.57;100.00;51267.19;5064398;28;20301;-70
2022/11/12 07:29:31;;;;;;;;;;;;;;;-143.57;100.00;51269.19;5080384;28;20026;-70
2022/11/12 07:32:32;;;;;;;;;;;;;;;-143.57;97.14;51235.41;5080166;28;20321;-70
2022/11/12 07:35:22;;;;;;;;;;;;;;;-143.57;96.64;51243.34;5080569;28;20333;-70
2022/11/12 07:38:07;;;;;;;;;;;;;;;-143.57;96.47;51211.53;5081975;28;19935;-70
2022/11/12 07:40:57;;;;;;;;;;;;;;;-143.57;96.37;51249.31;5079228;28;19934;-75
2022/11/12 07:43:43;;;;;;;;;;;;;;;-143.57;95.83;51223.47;5081763;28;20001;-72
2022/11/12 07:46:28;;;;;;;;;;;;;;;-143.57;96.16;51251.31;5083651;28;20001;-70
2022/11/12 07:49:13;;;;;;;;;;;;;;;-143.57;96.05;51215.53;5079590;28;20024;-70
2022/11/12 07:51:58;;;;;;;;;;;;;;;-143.57;96.82;51235.41;5084074;28;19938;-73
2022/11/12 07:54:44;;;;;;;;;;;;;;;-143.57;95.78;51247.31;5080804;28;19936;-73
2022/11/12 07:57:31;;;;;;;;;;;;;;;-143.57;95.51;51263.22;5066180;28;19935;-70
2022/11/12 08:00:16;;;;;;;;;;;;;;;-143.57;95.59;51221.47;5081509;28;19938;-68
2022/11/12 08:03:01;;;;;;;;;;;;;;;-143.57;95.04;51223.47;5079988;28;20049;-69
2022/11/12 08:05:46;;;;;;;;;;;;;;;-143.57;93.08;51215.53;5080920;28;19993;-69
2022/11/12 08:08:31;;;;;;;;;;;;;;;-143.57;92.26;51237.38;5083309;28;20527;-71
2022/11/12 08:11:17;;;;;;;;;;;;;;;-143.57;92.20;51223.47;5067383;28;20038;-73
2022/11/12 08:14:02;;;;;;;;;;;;;;;-143.57;91.06;51251.31;5081633;28;19997;-72
2022/11/12 08:16:48;;;;;;;;;;;;;;;-143.57;89.91;51243.34;5080607;28;19935;-72
2022/11/12 08:19:33;;;;;;;;;;;;;;;-143.57;90.91;51229.44;5081616;28;20498;-72
2022/11/12 08:22:19;;;;;;;;;;;;;;;-143.57;88.34;51227.44;5082418;28;19939;-72
2022/11/12 08:25:04;;;;;;;;;;;;;;;-143.57;88.67;51247.31;5065417;28;20530;-72
2022/11/12 08:27:54;;;;;;;;;;;;;;;-143.57;88.61;51243.34;5080922;28;19939;-72
2022/11/12 08:30:39;;;;;;;;;;;;;;;-143.57;88.32;51247.31;5081994;28;19939;-72
2022/11/12 08:33:25;;;;;;;;;;;;;;;-143.57;61.46;51207.56;5084895;28;19931;-73
2022/11/12 08:36:11;;;;;;;;;;;;;;;-143.57;61.42;51215.53;5082754;28;20491;-72
2022/11/12 08:38:56;;;;;;;;;;;;;;;-143.57;60.21;51219.50;5065739;28;20712;-74
2022/11/12 08:41:41;;;;;;;;;;;;;;;-143.57;61.64;51233.41;5080219;28;20081;-70
2022/11/12 08:44:27;;;;;;;;;;;;;;;-143.57;59.76;51197.63;5080259;28;20064;-69
2022/11/12 08:47:12;;;;;;;;;;;;;;;-143.57;59.28;51207.56;5082009;28;20297;-69
2022/11/12 08:49:57;;;;;;;;;;;;;;;-143.57;60.04;51235.41;5079866;28;19934;-69
2022/11/12 08:52:42;;;;;;;;;;;;;;;-143.57;59.33;51221.47;5079561;28;19935;-69
2022/11/12 08:55:28;;;;;;;;;;;;;;;-143.57;57.78;51231.41;5078981;28;19946;-69
2022/11/12 08:58:13;;;;;;;;;;;;;;;-143.57;56.69;51215.53;5078592;28;19976;-69
2022/11/12 09:01:03;;;;;;;;;;;;;;;-143.57;56.55;51237.38;5081095;28;20443;-69
2022/11/12 09:03:48;;;;;;;;;;;;;;;-143.57;56.62;51199.63;5082085;28;20357;-69
2022/11/12 09:06:33;;;;;;;;;;;;;;;-143.57;58.05;51251.31;5081568;28;20308;-70
2022/11/12 09:09:19;;;;;;;;;;;;;;;-143.57;58.46;51221.47;5084455;28;20395;-70
2022/11/12 09:12:04;;;;;;;;;;;;;;;-143.57;58.63;51247.31;5083064;28;20016;-69
2022/11/12 09:15:00;;;;;;;;;;;;;;;-143.57;57.73;51243.34;5082233;28;19939;-69
2022/11/12 09:18:06;;;;;;;;;;;;;;;-143.57;58.10;51223.47;5082445;28;19931;-72
2022/11/12 09:20:52;;;;;;;;;;;;;;;-143.57;58.92;51277.16;5087290;28;20028;-72
2022/11/12 09:23:37;;;;;;;;;;;;;;;-143.57;58.22;51231.41;5084573;28;20340;-70
2022/11/12 09:26:22;;;;;;;;;;;;;;;-143.57;58.24;51247.31;5084818;28;19936;-70
2022/11/12 09:29:07;;;;;;;;;;;;;;;-143.57;58.74;51199.63;5083290;28;19939;-75
2022/11/12 09:31:53;;;;;;;;;;;;;;;-143.57;58.60;51207.56;5082799;28;19935;-76
2022/11/12 09:34:38;;;;;;;;;;;;;;;-143.57;57.83;51251.31;5081089;28;19935;-74
2022/11/12 09:37:23;;;;;;;;;;;;;;;-143.57;58.05;51203.59;5080484;28;19973;-70
2022/11/12 09:40:14;;;;;;;;;;;;;;;-143.57;56.92;51219.50;5062870;28;20092;-70
2022/11/12 09:43:08;;;;;;;;;;;;;;;-143.57;56.81;51195.63;5081867;28;20612;-70
2022/11/12 09:45:55;;;;;;;;;;;;;;;-143.57;56.54;51229.44;5078875;28;20085;-70
2022/11/12 09:49:04;;;;;;;;;;;;;;;-143.57;56.16;51243.34;5082465;28;19935;-71
2022/11/12 09:51:51;;;;;;;;;;;;;;;-143.57;55.99;51237.38;5074503;28;19966;-73
2022/11/12 09:54:36;;;;;;;;;;;;;;;-143.57;56.57;51207.56;5080180;28;19951;-73
2022/11/12 09:57:21;;;;;;;;;;;;;;;-143.57;56.91;51247.31;5061112;28;19935;-72
2022/11/12 10:00:15;;;;;;;;;;;;;;;-143.57;57.09;51223.47;5080362;28;19931;-72
2022/11/12 10:03:20;;;;;;;;;;;;;;;-143.57;57.50;51179.75;5076064;28;19989;-72
2022/11/12 10:06:08;;;;;;;;;;;;;;;-143.57;57.79;51191.66;5075415;28;19984;-72
2022/11/12 10:08:54;;;;;;;;;;;;;;;-143.57;58.07;51243.34;5080558;28;19985;-72
2022/11/12 10:18:22;;;;;;;;;;;;;;;-143.57;59.87;51247.31;5078554;28;20518;-72
2022/11/12 10:21:16;;;;;;;;;;;;;;;-143.57;59.99;51195.63;5078550;28;19970;-72
2022/11/12 10:24:02;;;;;;;;;;;;;;;-143.57;63.16;51215.53;5078685;28;19935;-71
2022/11/12 10:26:48;;;;;;;;;;;;;;;-143.57;62.75;51227.44;5081583;28;19939;-72
2022/11/12 10:29:44;;;;;;;;;;;;;;;-143.57;63.24;51247.31;5077581;28;20012;-72
2022/11/12 10:32:30;;;;;;;;;;;;;;;-143.57;63.57;51211.53;5079403;28;19935;-71
2022/11/12 10:35:16;;;;;;;;;;;;;;;-143.57;63.23;51215.53;5082110;28;19931;-71
2022/11/12 10:38:04;;;;;;;;;;;;;;;-143.57;61.11;51215.53;5080329;28;19931;-71
2022/11/12 10:40:50;;;;;;;;;;;;;;;-143.57;60.76;51231.41;5079813;28;19939;-71
2022/11/12 10:43:35;;;;;;;;;;;;;;;-143.57;60.19;51235.41;5079155;28;19939;-70
2022/11/12 10:46:25;;;;;;;;;;;;;;;-143.57;59.92;51247.31;5081227;28;20345;-75
2022/11/12 10:49:13;;;;;;;;;;;;;;;-143.57;59.08;51227.44;5080866;28;19935;-75
2022/11/12 10:51:59;;;;;;;;;;;;;;;-143.57;58.42;51227.44;5080196;28;19954;-76
2022/11/12 10:54:44;;;;;;;;;;;;;;;-143.57;58.14;51237.38;5078644;28;19939;-76
2022/11/12 10:57:34;;;;;;;;;;;;;;;-143.57;56.95;51275.16;5078727;28;19935;-75
2022/11/12 11:00:20;;;;;;;;;;;;;;;-143.57;57.19;51239.38;5080303;28;19939;-76
2022/11/12 11:03:18;;;;;;;;;;;;;;;-143.57;57.43;51207.56;5079919;28;19935;-74
2022/11/12 11:06:06;;;;;;;;;;;;;;;-143.57;57.69;51211.53;5096634;27;19947;-73
2022/11/12 11:08:53;;;;;;;;;;;;;;;-143.57;56.91;51199.63;5083732;28;19989;-73
2022/11/12 11:11:49;;;;;;;;;;;;;;;-143.57;56.94;51247.31;5080739;28;19935;-68
2022/11/12 11:14:35;;;;;;;;;;;;;;;-143.57;57.04;51239.38;5081519;28;20420;-69
2022/11/12 11:17:20;;;;;;;;;;;;;;;-143.57;56.91;51227.44;5081642;28;19935;-70
2022/11/12 11:20:15;;;;;;;;;;;;;;;-143.57;56.52;51227.44;5080529;28;19980;-70
2022/11/12 11:23:09;;;;;;;;;;;;;;;-143.57;56.87;51243.34;5082654;28;19931;-69
2022/11/12 11:25:59;;;;;;;;;;;;;;;-143.57;57.51;51217.50;5081079;28;19935;-69
2022/11/12 11:28:54;;;;;;;;;;;;;;;-143.57;57.00;51211.53;5080685;28;19931;-70
2022/11/12 11:31:54;;;;;;;;;;;;;;;-143.57;57.97;51231.41;5081131;28;20443;-69
2022/11/12 11:34:39;;;;;;;;;;;;;;;-143.57;56.25;51233.41;5079983;28;19931;-69
2022/11/12 11:37:26;;;;;;;;;;;;;;;-143.57;55.50;51221.47;5081808;28;20032;-69
2022/11/12 11:40:32;;;;;;;;;;;;;;;-143.57;54.91;51225.47;5080389;28;20340;-69
2022/11/12 11:43:17;;;;;;;;;;;;;;;-143.57;54.19;51235.41;5043170;28;19931;-69
2022/11/12 11:46:11;;;;;;;;;;;;;;;-143.57;54.98;51245.34;5080483;28;20001;-73
2022/11/12 11:49:03;;;;;;;;;;;;;;;-143.57;55.19;51215.53;5068426;28;19935;-73
2022/11/12 11:52:01;;;;;;;;;;;;;;;-143.57;55.73;51207.56;5083641;28;20006;-73
2022/11/12 11:55:05;;;;;;;;;;;;;;;-143.57;56.34;51221.47;5080030;28;19974;-74
2022/11/12 11:58:03;;;;;;;;;;;;;;;-143.57;56.00;51227.44;5077180;28;19981;-74
2022/11/12 12:01:07;;;;;;;;;;;;;;;-143.57;57.09;51223.47;5082069;28;20020;-74
2022/11/12 12:03:52;;;;;;;;;;;;;;;-143.57;60.59;51221.47;5079629;28;20674;-74
2022/11/12 12:06:45;;;;;;;;;;;;;;;-143.57;59.29;51263.22;5081469;28;20012;-74
2022/11/12 12:09:40;;;;;;;;;;;;;;;-143.57;56.49;51195.63;5079994;28;20085;-75
2022/11/12 12:12:26;;;;;;;;;;;;;;;-143.57;55.34;51219.50;5065635;28;19939;-74
2022/11/12 12:15:31;;;;;;;;;;;;;;;-143.57;54.57;51235.41;5083163;28;21509;-75
2022/11/12 12:18:19;;;;;;;;;;;;;;;-143.57;53.87;51199.63;5076539;28;19936;-75
2022/11/12 12:21:10;;;;;;;;;;;;;;;-143.57;53.66;51179.75;5078403;28;19935;-77
2022/11/12 12:24:05;;;;;;;;;;;;;;;-143.57;54.15;51263.22;5078065;28;19931;-68
2022/11/12 12:26:50;;;;;;;;;;;;;;;-143.57;55.82;51219.50;5080662;28;20277;-69
2022/11/12 12:29:42;;;;;;;;;;;;;;;-143.57;56.92;51227.44;5079054;28;19939;-69
2022/11/12 12:32:33;;;;;;;;;;;;;;;-143.57;57.39;51219.50;5080278;28;20431;-68
2022/11/12 12:35:21;;;;;;;;;;;;;;;-143.57;59.29;51237.38;5079364;28;19935;-69
2022/11/12 12:38:16;;;;;;;;;;;;;;;-143.57;62.03;51203.59;5085151;28;19931;-69
2022/11/12 12:41:17;;;;;;;;;;;;;;;-143.57;65.26;51235.41;5080308;28;19935;-70
2022/11/12 12:44:04;;;;;;;;;;;;;;;-143.57;67.48;51249.31;5068036;28;19932;-69
2022/11/12 12:46:55;;;;;;;;;;;;;;;-143.57;70.06;51223.47;5080943;28;19985;-70
2022/11/12 12:49:40;;;;;;;;;;;;;;;-143.57;71.61;51209.56;5080744;28;20351;-69
2022/11/12 12:52:25;;;;;;;;;;;;;;;-143.57;73.59;51203.59;5081094;28;19959;-70
2022/11/12 12:55:33;;;;;;;;;;;;;;;-143.57;73.45;51239.38;5080939;28;20032;-69
2022/11/12 12:58:18;;;;;;;;;;;;;;;-143.57;74.50;51207.56;5079909;28;20423;-69
2022/11/12 13:01:06;;;;;;;;;;;;;;;-143.57;74.92;51223.47;5083671;28;20320;-69
2022/11/12 13:04:02;;;;;;;;;;;;;;;-143.57;76.48;51251.31;5084387;28;19942;-70
2022/11/12 13:06:48;;;;;;;;;;;;;;;-143.57;75.61;51187.69;5083814;28;19935;-69
2022/11/12 13:09:34;;;;;;;;;;;;;;;-143.57;77.14;51247.31;5083905;28;19976;-70
2022/11/12 13:15:09;;;;;;;;;;;;;;;-143.57;77.03;51221.47;5083572;28;20537;-70
2022/11/12 13:17:55;;;;;;;;;;;;;;;-143.57;76.04;51243.34;5083996;28;19963;-69
2022/11/12 13:20:40;;;;;;;;;;;;;;;-143.57;78.62;51231.41;5083243;28;20342;-70
2022/11/12 13:24:07;;;;;;;;;;;;;;;-143.57;80.08;51227.44;5082787;28;19959;-70
2022/11/12 13:26:57;;;;;;;;;;;;;;;-143.57;82.91;51231.41;5084713;28;19935;-70
2022/11/12 13:29:43;;;;;;;;;;;;;;;-143.57;82.25;51247.31;5083877;28;20037;-70
2022/11/12 13:32:31;;;;;;;;;;;;;;;-143.57;82.99;51219.50;5083513;28;20028;-70
2022/11/12 13:35:25;;;;;;;;;;;;;;;-143.57;83.18;51267.19;5082845;28;20420;-69
2022/11/12 13:38:11;;;;;;;;;;;;;;;-143.57;83.77;51215.53;5083999;28;19931;-69
2022/11/12 13:41:17;;;;;;;;;;;;;;;-143.57;85.71;51239.38;5083482;28;20010;-69
2022/11/12 13:44:07;;;;;;;;;;;;;;;-143.57;85.79;51295.03;5082733;28;19985;-69
2022/11/12 13:46:54;;;;;;;;;;;;;;;-143.57;86.32;51227.44;5085336;28;20009;-69
2022/11/12 13:49:41;;;;;;;;;;;;;;;-143.57;86.95;51243.34;5082855;28;19981;-70
2022/11/12 13:52:27;;;;;;;;;;;;;;;-143.57;87.37;51263.22;5083298;28;19981;-69
2022/11/12 13:55:14;;;;;;;;;;;;;;;-143.57;86.66;51239.38;5085131;28;19935;-69
2022/11/12 13:57:59;;;;;;;;;;;;;;;-143.57;89.05;51243.34;5081093;28;19985;-71
2022/11/12 14:00:52;;;;;;;;;;;;;;;-143.57;87.67;51279.13;5085807;28;19935;-70
2022/11/12 14:03:44;;;;;;;;;;;;;;;-143.57;88.39;51233.41;5081085;28;20073;-74
2022/11/12 14:06:32;;;;;;;;;;;;;;;-143.57;87.28;51235.41;5085602;28;19990;-73
2022/11/12 14:09:20;;;;;;;;;;;;;;;-143.57;86.54;51279.13;5083420;28;19935;-72
2022/11/12 14:12:15;;;;;;;;;;;;;;;-143.57;85.40;51271.19;5081640;28;20150;-72
2022/11/12 14:15:03;;;;;;;;;;;;;;;-143.57;85.74;51275.16;5081895;28;19934;-69
2022/11/12 14:17:51;;;;;;;;;;;;;;;-143.57;85.43;51281.13;5080550;28;19939;-69
2022/11/12 14:20:40;;;;;;;;;;;;;;;-143.57;84.06;51247.31;5080243;28;20352;-69
2022/11/12 14:23:25;;;;;;;;;;;;;;;-143.57;83.91;51239.38;5081249;28;19934;-69
2022/11/12 14:26:11;;;;;;;;;;;;;;;-143.57;83.85;51275.16;5079835;28;19935;-69
2022/11/12 14:28:56;;;;;;;;;;;;;;;-143.57;83.26;51223.47;5081014;28;19935;-68
2022/11/12 14:31:41;;;;;;;;;;;;;;;-143.57;84.32;51299.00;5081728;28;19935;-69
2022/11/12 14:34:28;;;;;;;;;;;;;;;-143.57;83.52;51289.06;5080203;28;19939;-69
2022/11/12 14:37:24;;;;;;;;;;;;;;;-143.57;84.58;51227.44;5079714;28;20466;-72